Thessalon, Ontario

3:50 AM EST on February 12, 2016 (GMT -0500)
Lafarge Smelter Bay Dock | | Change Station
CLOSE
Current Station
Personal Weather Station
Location: Thessalon, ONTARIO
Elevation: 581 ft
Nearby Weather Stations

Elev 581 ft 46.25 °N, 83.54 °W | Updated 54 seconds ago

Light Snow
Light Snow
15.4 °F
Feels Like -1 °F
N
19.0
Wind Variable Wind from West
Gusts 19.0 mph

Today
High -- | Low -- °F
--% Chance of Precip.
Yesterday
High -- | Low -- °F
Precip. -- in
Pressure 29.92 in
Visibility 1.0 miles
Clouds Overcast 1900 ft
Windchill -1 °F
Dew Point 6 °F
Humidity 65%
Rainfall 0.00 in
Snow Depth Not available.
7:42 AM 5:54 PM
Waxing Crescent, 18% visible
SPECI CYZE 120848Z AUTO 26017KT 1SM -SN OVC019 M07/M09 A2987 RMK SLP131
Pressure 29.92 in
Visibility 1.0 miles
Clouds Overcast 1900 ft
Windchill -1 °F
Dew Point 6 °F
Humidity 65%
Rainfall 0.00 in
Snow Depth Not available.
7:42 AM 5:54 PM
Waxing Crescent, 18% visible
SPECI CYZE 120848Z AUTO 26017KT 1SM -SN OVC019 M07/M09 A2987 RMK SLP131

10-Day Weather Forecast

Almanac

Astronomy

Feb. 12, 2016 Rise Set
Actual Time
Civil Twilight
Nautical Twilight
Astronomical Twilight
Moon
Length of Visible Light
Length of Day
Tomorrow will be .
, % of the Moon is Illuminated

Today's Extremes

Country Highs Country Lows

Community

WunderPhotos

Upload Photos

1,892,284 photos uploaded!

WunderBlog® & News

Nearby

Air Quality

  Air Quality AQ Index Pollutant
Not available.

Snow Depth

Station Depth Elevation

Earthquake Activity

City Distance Mag. Time & Date
Minimum magnitude displayed is 2.5.

Coastal Water Temperatures

Place Temperature

Stations

Nearby Weather Stations

Station Location Temp. Windchill Dew Point Humidity Wind Precip. Elev Updated Type
                   

Watches & Warnings

There are currently no watches in effect.